Time;durP1;ratioP1;P1;durP2;ratioP2;P2;SDS_P1;SDS_P2;PMS_P1;PMS_P2;Temp;Humidity;BMP_temperature;BMP_pressure;BME280_temperature;BME280_humidity;BME280_pressure;Samples;Min_cycle;Max_cycle;Signal;HPM_P1;HPM_P2
2022/02/01 00:03:29;;;;;;;2.63;2.35;;;4.30;79.90;;;3.32;66.69;93920.00;4954244;29;20631;-91
2022/02/01 00:08:45;;;;;;;2.40;2.20;;;4.30;79.70;;;3.39;66.86;93933.09;4940271;29;20219;-91
2022/02/01 00:38:11;;;;;;;2.33;2.17;;;4.30;79.80;;;3.23;66.61;93946.97;4939951;29;20222;-92
2022/02/01 00:40:40;;;;;;;2.00;1.88;;;4.30;79.80;;;3.20;66.77;93948.91;4928856;29;20220;-90
2022/02/01 00:43:09;;;;;;;2.10;1.90;;;4.30;79.70;;;3.23;66.78;93960.72;4921170;29;20200;-91
2022/02/01 00:45:36;;;;;;;2.25;2.03;;;4.30;79.60;;;3.26;66.74;93988.09;4936327;29;20240;-92
2022/02/01 00:48:06;;;;;;;2.40;2.20;;;4.30;79.60;;;3.27;66.56;93997.47;4921095;29;20219;-91
2022/02/01 00:50:34;;;;;;;2.20;2.00;;;4.20;79.50;;;3.12;66.58;93972.28;4939616;29;20227;-91
2022/02/01 00:53:03;;;;;;;2.42;2.22;;;4.20;79.50;;;3.15;66.29;93990.09;4926534;28;20226;-91
2022/02/01 00:55:31;;;;;;;2.33;2.13;;;4.20;79.40;;;3.15;66.27;93992.69;4956008;29;20603;-91
2022/02/01 00:57:59;;;;;;;2.67;2.45;;;4.20;79.40;;;3.22;66.51;94007.53;4939998;29;20262;-90
2022/02/01 01:00:26;;;;;;;2.70;2.50;;;4.20;79.40;;;3.24;66.42;94014.16;4937441;28;20237;-91
2022/02/01 01:02:54;;;;;;;2.05;1.95;;;4.20;79.40;;;3.17;66.24;94006.28;4937115;29;20429;-90
2022/02/01 01:05:22;;;;;;;2.10;1.90;;;4.20;79.30;;;3.15;66.18;94010.81;4955567;28;20227;-89
2022/02/01 01:07:50;;;;;;;2.42;2.22;;;4.10;79.20;;;3.21;66.41;94030.06;4955393;28;20195;-89
2022/02/01 01:10:19;;;;;;;2.03;1.90;;;4.20;79.30;;;3.12;66.23;94021.50;4941570;28;20317;-90
2022/02/01 01:12:59;;;;;;;2.33;2.13;;;4.10;79.30;;;3.16;66.39;94040.09;4910922;29;20203;-91
2022/02/01 01:15:31;;;;;;;2.58;2.38;;;4.20;80.00;;;3.11;66.19;94043.19;4936403;29;20228;-90
2022/02/01 01:54:12;;;;;;;3.88;3.55;;;3.80;78.50;;;2.74;65.38;94088.63;4941146;29;20223;-91
2022/02/01 01:56:40;;;;;;;4.68;3.67;;;3.80;78.50;;;2.69;65.53;94086.53;4937755;29;20674;-89
2022/02/01 01:59:10;;;;;;;3.72;3.42;;;3.80;78.60;;;2.67;65.46;94095.44;4938316;29;20681;-88
2022/02/01 02:01:38;;;;;;;3.70;3.38;;;3.70;78.50;;;2.56;65.44;94086.22;4921933;29;20195;-89
2022/02/01 02:04:07;;;;;;;3.90;3.58;;;3.70;78.50;;;2.54;65.20;94094.16;4938827;29;20231;-88
2022/02/01 02:06:37;;;;;;;4.63;4.00;;;3.60;78.40;;;2.48;65.53;94104.31;4938329;29;20227;-89
2022/02/01 02:09:09;;;;;;;3.85;3.45;;;3.50;78.40;;;2.43;65.80;94094.47;4954194;29;20604;-89
2022/02/01 02:14:20;;;;;;;5.00;4.35;;;3.40;78.60;;;2.45;65.85;94108.03;4938735;29;20760;-89
2022/02/01 02:17:01;;;;;;;5.03;4.03;;;3.40;79.30;;;2.43;65.25;94111.75;4954162;29;20219;-88
2022/02/01 02:19:31;;;;;;;4.32;3.92;;;3.40;78.50;;;2.36;65.25;94111.63;4953631;29;20234;-88
2022/02/01 02:22:03;;;;;;;5.93;4.40;;;3.40;79.40;;;2.34;65.41;94116.13;4938573;29;20227;-89
2022/02/01 02:24:38;;;;;;;5.50;4.32;;;3.30;78.50;;;2.34;65.25;94116.13;4970301;28;20253;-89
2022/02/01 02:27:06;;;;;;;5.20;4.60;;;3.40;78.60;;;2.42;65.29;94131.69;4953863;28;20203;-88
2022/02/01 02:29:35;;;;;;;5.13;4.50;;;3.40;78.60;;;2.40;65.31;94134.44;4938738;29;20231;-88
2022/02/01 02:32:04;;;;;;;4.43;4.03;;;3.40;78.50;;;2.31;65.54;94122.44;4938199;29;20214;-89
2022/02/01 02:34:33;;;;;;;5.32;4.30;;;3.30;78.40;;;2.31;64.86;94135.38;4938170;29;20226;-88
2022/02/01 02:37:03;;;;;;;5.78;4.40;;;3.30;78.30;;;2.30;64.94;94148.50;4937761;29;20704;-88
2022/02/01 02:39:46;;;;;;;4.38;3.90;;;3.30;78.20;;;2.23;64.79;94137.94;4937884;29;20243;-88
2022/02/01 02:42:29;;;;;;;5.25;4.43;;;3.30;78.10;;;2.22;64.71;94151.84;4940600;29;20207;-88
2022/02/01 02:45:09;;;;;;;5.55;4.40;;;3.30;78.10;;;2.11;65.19;94141.81;4953516;28;20231;-88
2022/02/01 02:47:38;;;;;;;7.85;5.18;;;3.20;78.10;;;2.12;65.31;94139.06;4937400;29;20576;-87
2022/02/01 02:50:06;;;;;;;6.20;4.80;;;3.20;78.20;;;2.16;65.08;94142.13;4954010;29;20588;-88
2022/02/01 02:52:34;;;;;;;6.28;5.38;;;3.20;78.40;;;2.17;65.34;94146.34;4937621;29;20207;-87
2022/02/01 02:55:02;;;;;;;6.20;5.22;;;3.10;78.40;;;2.17;65.34;94154.94;4918913;29;20220;-88
2022/02/01 02:57:30;;;;;;;7.18;5.45;;;3.10;78.50;;;2.18;65.43;94160.91;4938424;29;20213;-87
2022/02/01 02:59:57;;;;;;;7.20;5.75;;;3.20;78.60;;;2.18;65.54;94169.47;4952732;28;20243;-88
2022/02/01 03:02:25;;;;;;;6.63;5.82;;;3.20;78.60;;;2.22;65.56;94177.72;4923600;29;20203;-88
2022/02/01 03:04:53;;;;;;;7.05;5.63;;;3.20;78.70;;;2.25;65.40;94180.00;4912067;29;20245;-88
2022/02/01 03:07:21;;;;;;;7.55;5.70;;;3.20;78.70;;;2.16;65.22;94165.44;4938328;29;20207;-89
2022/02/01 03:09:49;;;;;;;6.55;5.22;;;3.20;78.70;;;2.29;65.13;94186.47;4918430;29;20319;-88
2022/02/01 03:12:31;;;;;;;6.82;5.70;;;3.20;78.70;;;2.30;65.48;94182.91;4925984;29;20213;-88
2022/02/01 03:15:21;;;;;;;5.90;4.90;;;3.20;78.60;;;2.33;65.23;94180.03;4938086;29;20239;-88
2022/02/01 03:20:35;;;;;;;8.90;5.88;;;3.30;78.60;;;2.38;64.85;94187.28;4934651;29;20228;-88
2022/02/01 03:23:03;;;;;;;9.38;5.97;;;3.30;78.60;;;2.40;65.32;94182.78;4936999;29;20200;-88
2022/02/01 03:25:30;;;;;;;7.82;5.70;;;3.30;78.60;;;2.40;65.24;94181.03;4937989;29;20223;-88
2022/02/01 03:27:58;;;;;;;7.30;6.07;;;3.30;78.60;;;2.37;65.35;94185.69;4933819;29;20260;-88
2022/02/01 03:30:26;;;;;;;6.32;5.50;;;3.30;78.60;;;2.43;65.08;94197.19;4918622;29;20230;-88
2022/02/01 03:32:54;;;;;;;7.72;6.15;;;3.40;78.60;;;2.43;65.32;94212.72;4919496;29;20219;-88
2022/02/01 03:35:22;;;;;;;9.65;6.60;;;3.40;78.60;;;2.50;65.19;94237.81;4934351;29;20228;-88
2022/02/01 03:37:50;;;;;;;8.40;6.05;;;3.40;78.60;;;2.47;65.06;94243.28;4921689;29;20208;-88
2022/02/01 03:40:20;;;;;;;8.52;6.13;;;3.40;78.50;;;2.42;64.98;94247.31;4934027;29;20235;-88
2022/02/01 03:42:48;;;;;;;10.05;6.93;;;3.50;78.60;;;2.44;65.42;94251.38;4934076;29;20255;-88
2022/02/01 03:45:15;;;;;;;9.00;6.50;;;3.40;78.50;;;2.51;65.11;94262.69;4903191;29;20339;-88
2022/02/01 03:47:43;;;;;;;7.28;6.47;;;3.50;78.50;;;2.46;65.22;94256.41;4939649;29;20200;-88
2022/02/01 03:50:11;;;;;;;9.02;6.22;;;3.50;78.50;;;2.42;65.07;94266.25;4948095;29;20224;-88
2022/02/01 03:52:39;;;;;;;8.45;6.40;;;3.50;78.40;;;2.52;65.12;94279.88;4918595;29;20200;-88
2022/02/01 03:55:07;;;;;;;11.02;7.22;;;3.50;78.40;;;2.51;64.63;94286.00;4902782;29;20224;-88
2022/02/01 03:57:35;;;;;;;12.48;6.88;;;3.40;78.30;;;2.44;64.96;94285.03;4918090;29;20212;-88
2022/02/01 04:00:05;;;;;;;11.90;6.70;;;3.50;78.20;;;2.48;64.60;94283.75;4933462;29;20226;-88
2022/02/01 04:02:39;;;;;;;11.80;7.13;;;3.50;78.10;;;2.43;64.60;94280.00;4949442;29;20674;-87
2022/02/01 04:05:08;;;;;;;13.18;6.90;;;3.40;77.90;;;2.46;64.85;94298.63;4950058;29;20320;-88
2022/02/01 04:07:35;;;;;;;12.88;6.90;;;3.40;77.90;;;2.45;64.42;94301.38;4941470;28;20212;-88
2022/02/01 04:10:03;;;;;;;10.77;6.63;;;3.40;77.80;;;2.32;64.24;94292.28;4945466;29;20227;-88
2022/02/01 04:12:31;;;;;;;14.50;6.57;;;3.40;77.70;;;2.40;64.28;94317.34;4937071;29;20263;-88
2022/02/01 04:15:00;;;;;;;11.65;6.25;;;3.40;77.60;;;2.38;64.52;94321.88;4956283;28;20219;-88
2022/02/01 04:17:28;;;;;;;10.77;6.10;;;3.40;77.60;;;2.30;64.22;94307.13;4940718;29;20258;-88
2022/02/01 04:19:56;;;;;;;15.15;6.90;;;3.40;77.60;;;2.27;64.13;94301.47;4940188;29;20226;-89
2022/02/01 04:22:24;;;;;;;18.08;6.72;;;3.40;77.60;;;2.25;63.99;94301.63;4940734;29;20211;-88
2022/02/01 04:24:51;;;;;;;13.90;6.75;;;3.30;77.50;;;2.27;64.01;94304.88;4941969;29;20227;-88
2022/02/01 04:27:32;;;;;;;12.90;6.00;;;3.30;77.50;;;2.29;64.03;94305.50;4924634;29;20203;-88
2022/02/01 04:30:07;;;;;;;12.40;6.78;;;3.30;77.50;;;2.28;64.42;94305.66;4937494;29;20252;-89
2022/02/01 04:32:38;;;;;;;13.85;6.82;;;3.30;77.50;;;2.17;63.89;94286.06;4921675;29;20207;-88
2022/02/01 04:35:09;;;;;;;13.60;6.40;;;3.30;77.50;;;2.26;63.88;94307.59;4936755;29;20224;-88
2022/02/01 04:37:39;;;;;;;12.18;6.50;;;3.30;77.60;;;2.24;63.92;94316.31;4929035;29;20214;-88
2022/02/01 04:40:11;;;;;;;13.20;7.05;;;3.20;77.50;;;2.16;64.13;94313.72;4955838;29;20246;-88
2022/02/01 04:42:41;;;;;;;12.63;7.13;;;3.30;77.60;;;2.18;64.03;94313.56;4940720;29;20254;-88
2022/02/01 04:45:13;;;;;;;12.63;6.47;;;3.20;77.50;;;2.15;64.00;94313.84;4940262;29;20230;-88
2022/02/01 04:47:43;;;;;;;13.73;7.03;;;3.20;77.50;;;2.16;63.87;94323.22;4948355;28;20211;-88
2022/02/01 04:50:23;;;;;;;11.52;7.00;;;3.20;77.50;;;2.14;63.87;94320.81;4955146;28;20219;-89
2022/02/01 04:52:53;;;;;;;14.13;6.40;;;3.20;77.50;;;2.20;63.83;94324.56;4940264;28;20290;-88
2022/02/01 04:55:34;;;;;;;14.23;6.15;;;3.20;77.50;;;2.18;63.68;94321.31;4971189;28;20230;-89
2022/02/01 04:58:03;;;;;;;12.63;6.93;;;3.20;77.60;;;2.19;63.81;94325.53;4924647;29;20239;-88
2022/02/01 05:00:31;;;;;;;13.40;6.63;;;3.20;77.50;;;2.14;63.93;94335.53;4939526;29;20223;-88
2022/02/01 05:03:01;;;;;;;15.68;7.57;;;3.20;77.40;;;2.09;63.68;94338.56;4940166;29;20211;-88
2022/02/01 05:05:29;;;;;;;17.67;8.13;;;3.20;77.30;;;2.01;64.05;94341.13;4970510;28;20270;-88
2022/02/01 05:08:06;;;;;;;18.98;8.50;;;3.20;77.30;;;2.01;64.04;94348.88;4934577;29;20473;-89
2022/02/01 05:10:35;;;;;;;16.15;7.70;;;3.20;77.40;;;1.87;64.02;94338.13;4936371;29;20228;-88
2022/02/01 05:13:54;;;;;;;13.57;8.05;;;3.10;77.20;;;1.90;63.81;94360.28;4936562;29;20211;-88
2022/02/01 05:16:09;;;;;;;14.50;7.10;;;3.10;77.20;;;1.78;63.93;94370.06;4950818;29;20224;-89
2022/02/01 05:18:48;;;;;;;14.85;6.78;;;3.00;77.10;;;1.70;63.86;94370.00;4938755;29;20211;-90
2022/02/01 05:21:25;;;;;;;13.38;6.90;;;3.00;77.20;;;1.69;64.08;94395.03;4912795;29;20218;-88
2022/02/01 05:23:55;;;;;;;17.02;8.20;;;2.90;77.20;;;1.66;64.31;94392.78;4939128;29;20188;-89
2022/02/01 05:26:24;;;;;;;15.45;7.35;;;2.80;77.20;;;1.65;64.18;94403.25;4939181;29;20210;-89
2022/02/01 05:28:52;;;;;;;20.67;8.07;;;2.90;77.30;;;1.64;64.12;94411.97;4939182;29;20214;-90
2022/02/01 05:31:23;;;;;;;17.95;7.72;;;2.80;77.40;;;1.66;64.38;94428.97;4939308;29;20277;-89
2022/02/01 05:33:53;;;;;;;13.13;7.32;;;2.80;77.40;;;1.59;64.19;94427.94;4927200;29;20294;-88
2022/02/01 05:36:22;;;;;;;19.95;8.02;;;2.80;77.40;;;1.60;64.02;94440.69;4938701;29;20290;-90
2022/02/01 05:38:52;;;;;;;15.52;7.72;;;2.80;77.40;;;1.50;64.37;94431.38;4937927;29;20203;-90
2022/02/01 05:41:24;;;;;;;18.30;7.97;;;2.70;77.30;;;1.54;64.21;94453.41;4954769;29;20211;-89
2022/02/01 05:43:52;;;;;;;14.27;7.25;;;2.70;77.40;;;1.50;64.49;94460.66;4938685;29;20203;-91
2022/02/01 05:46:20;;;;;;;12.90;7.10;;;2.70;77.40;;;1.43;64.16;94455.25;4937802;29;20218;-90
2022/02/01 05:48:48;;;;;;;17.67;7.80;;;2.70;77.40;;;1.43;64.59;94452.66;4937661;29;20283;-91
2022/02/01 05:51:16;;;;;;;15.77;7.70;;;2.60;77.50;;;1.39;64.67;94464.25;4935110;29;20204;-89
2022/02/01 05:53:44;;;;;;;16.45;8.15;;;2.60;77.60;;;1.43;64.87;94469.94;4920020;29;20208;-90
2022/02/01 05:56:13;;;;;;;13.40;7.45;;;2.60;77.60;;;1.44;64.27;94471.53;4920054;29;20282;-90
2022/02/01 05:58:41;;;;;;;16.80;7.90;;;2.50;77.50;;;1.39;64.73;94486.69;4935441;29;20204;-90
2022/02/01 06:01:09;;;;;;;17.75;7.70;;;2.50;77.50;;;1.43;64.19;94496.59;4935347;29;20207;-89
2022/02/01 06:03:36;;;;;;;18.25;8.38;;;2.50;77.60;;;1.41;64.76;94488.16;4934635;29;20290;-89
2022/02/01 06:06:04;;;;;;;18.10;7.88;;;2.60;77.80;;;1.47;64.81;94496.31;4935060;29;20204;-89
2022/02/01 06:08:32;;;;;;;19.85;8.32;;;2.60;77.80;;;1.53;64.49;94506.06;4935431;29;20208;-90
2022/02/01 06:11:00;;;;;;;15.75;7.50;;;2.50;77.80;;;1.58;64.41;94512.41;4935695;29;20211;-90
2022/02/01 06:13:27;;;;;;;15.45;7.72;;;2.60;77.80;;;1.63;64.67;94509.38;4935447;29;20200;-89
2022/02/01 06:15:55;;;;;;;15.73;7.57;;;2.60;77.90;;;1.59;64.33;94503.69;4935663;29;20232;-90
2022/02/01 06:18:23;;;;;;;18.05;7.97;;;2.60;77.90;;;1.65;64.42;94507.47;4919545;29;20208;-90
2022/02/01 06:20:52;;;;;;;17.00;7.22;;;2.70;77.90;;;1.69;64.39;94500.22;4935300;29;20224;-90
2022/02/01 06:23:20;;;;;;;17.50;7.72;;;2.70;77.80;;;1.70;64.34;94499.28;4935417;29;20212;-90
2022/02/01 06:25:49;;;;;;;18.17;7.47;;;2.70;77.90;;;1.75;64.38;94499.66;4919492;29;20228;-90
2022/02/01 06:28:25;;;;;;;19.30;7.60;;;2.70;77.90;;;1.74;64.03;94496.22;4934627;29;20211;-91
2022/02/01 06:30:55;;;;;;;13.68;7.28;;;2.80;77.90;;;1.80;64.23;94501.78;4919140;29;20291;-91
2022/02/01 06:33:23;;;;;;;17.42;8.65;;;2.80;77.90;;;1.83;64.02;94502.31;4919479;29;20259;-90
2022/02/01 06:35:52;;;;;;;16.52;7.53;;;2.80;77.80;;;1.82;64.17;94494.69;4919272;29;20228;-90
2022/02/01 06:38:20;;;;;;;18.45;7.95;;;2.80;77.70;;;1.84;64.20;94510.88;4935007;29;20204;-90
2022/02/01 06:40:49;;;;;;;16.85;7.88;;;2.90;77.80;;;1.84;63.95;94508.28;4934765;29;20220;-90
2022/02/01 06:43:17;;;;;;;15.02;8.23;;;2.90;77.80;;;1.86;63.86;94512.34;4935170;29;20219;-90
2022/02/01 06:45:45;;;;;;;15.95;7.53;;;2.90;77.70;;;1.86;64.13;94514.94;4919174;29;20228;-90
2022/02/01 06:48:13;;;;;;;19.08;8.50;;;2.80;77.70;;;1.86;64.11;94514.94;4934920;29;20614;-90
2022/02/01 06:50:46;;;;;;;16.35;7.90;;;2.90;77.80;;;1.92;64.29;94522.09;4920001;29;20287;-90
2022/02/01 06:53:13;;;;;;;19.48;6.80;;;3.00;77.80;;;1.97;64.14;94534.59;4935230;29;20267;-89
2022/02/01 06:58:16;;;;;;;19.15;9.05;;;3.00;77.80;;;1.99;64.51;94534.44;4934908;29;20242;-89
2022/02/01 07:00:44;;;;;;;15.35;8.40;;;3.00;77.80;;;1.97;64.49;94536.38;4934483;29;20320;-89
2022/02/01 07:03:12;;;;;;;18.13;7.75;;;3.00;77.80;;;2.00;64.42;94536.06;4934235;29;20211;-89
2022/02/01 07:05:41;;;;;;;20.23;8.43;;;3.00;77.80;;;2.00;64.24;94539.47;4934400;29;20223;-90
2022/02/01 07:08:09;;;;;;;19.05;8.38;;;3.10;77.80;;;2.04;64.42;94545.16;4934591;29;20244;-89
2022/02/01 07:10:37;;;;;;;19.30;8.25;;;3.00;77.80;;;2.05;64.84;94551.94;4919042;29;20235;-89
2022/02/01 07:13:04;;;;;;;17.98;8.13;;;3.10;77.90;;;2.08;64.39;94554.25;4934492;29;20263;-90
2022/02/01 07:15:34;;;;;;;22.83;9.27;;;3.10;78.00;;;2.13;64.32;94562.38;4919152;29;20228;-89
2022/02/01 07:18:03;;;;;;;19.73;9.15;;;3.10;77.90;;;2.10;64.37;94560.09;4934556;29;20247;-89
2022/02/01 07:20:32;;;;;;;14.60;7.80;;;3.10;77.90;;;2.14;64.31;94564.00;4918023;29;20232;-89
2022/02/01 07:23:00;;;;;;;16.20;8.00;;;3.20;78.00;;;2.18;64.45;94567.91;4934577;29;20203;-89
2022/02/01 07:25:33;;;;;;;17.83;8.25;;;3.20;78.00;;;2.16;64.77;94569.84;4934654;29;20220;-90
2022/02/01 07:28:04;;;;;;;15.32;7.80;;;3.20;77.90;;;2.19;64.11;94566.16;4933748;29;20211;-90
2022/02/01 07:30:32;;;;;;;15.13;7.78;;;3.20;77.90;;;2.28;64.48;94585.13;4919009;29;20248;-89
2022/02/01 07:33:02;;;;;;;14.35;7.03;;;3.20;77.90;;;2.28;64.37;94585.13;4934139;29;20675;-89
2022/02/01 07:35:32;;;;;;;13.77;7.65;;;3.30;77.90;;;2.35;64.21;94589.56;4934060;29;20227;-90
2022/02/01 07:38:01;;;;;;;18.63;8.27;;;3.30;77.90;;;2.38;64.21;94599.63;4918177;29;20732;-89
2022/02/01 07:40:30;;;;;;;17.90;8.93;;;3.30;77.90;;;2.32;64.29;94594.22;4935305;29;20232;-90
2022/02/01 07:42:58;;;;;;;15.65;8.88;;;3.30;77.90;;;2.35;64.07;94605.09;4922353;29;20211;-90
2022/02/01 07:45:31;;;;;;;17.77;8.73;;;3.40;77.90;;;2.31;64.40;94600.38;4937543;29;20253;-90
2022/02/01 07:48:02;;;;;;;18.65;8.95;;;3.40;78.00;;;2.31;64.33;94601.19;4937603;29;20666;-90
2022/02/01 07:50:33;;;;;;;17.40;8.50;;;3.40;78.00;;;2.33;64.54;94601.84;4940234;29;20235;-90
2022/02/01 07:53:04;;;;;;;19.20;9.32;;;3.40;77.90;;;2.36;64.30;94609.31;4940973;29;20302;-90
2022/02/01 07:55:34;;;;;;;20.40;9.23;;;3.40;78.00;;;2.37;64.41;94600.59;4953504;29;20231;-90
2022/02/01 07:58:04;;;;;;;17.92;8.85;;;3.40;78.00;;;2.40;64.36;94599.47;4943077;28;20226;-90
2022/02/01 08:00:32;;;;;;;13.93;7.82;;;3.40;78.10;;;2.48;64.48;94603.88;4944333;28;20219;-90
2022/02/01 08:03:01;;;;;;;17.52;8.80;;;3.40;78.10;;;2.50;64.48;94595.03;4959272;28;20814;-90
2022/02/01 08:05:31;;;;;;;18.67;9.20;;;3.40;79.10;;;2.56;64.90;94612.56;4951442;28;20318;-88
2022/02/01 08:08:07;;;;;;;19.15;8.52;;;3.50;78.30;;;2.62;64.41;94613.72;4971800;28;20266;-88
2022/02/01 08:10:46;;;;;;;13.88;8.50;;;3.60;78.30;;;2.63;64.70;94619.72;4940520;29;20336;-90
2022/02/01 08:16:38;;;;;;;18.88;8.80;;;3.60;78.30;;;2.66;64.33;94614.22;4903422;29;20228;-89
2022/02/01 08:19:37;;;;;;;15.82;8.43;;;3.60;78.30;;;2.68;65.06;94620.09;4907091;29;20249;-89
2022/02/01 08:22:07;;;;;;;15.90;9.32;;;3.60;78.40;;;2.75;64.59;94621.09;4942355;29;20416;-89
2022/02/01 08:24:35;;;;;;;20.73;8.93;;;3.70;78.40;;;2.79;64.72;94621.63;4940750;29;20219;-88
2022/02/01 08:27:04;;;;;;;12.85;8.40;;;3.70;78.50;;;2.96;64.76;94622.56;4940518;29;20262;-89
2022/02/01 08:29:32;;;;;;;20.23;9.45;;;3.70;78.60;;;2.94;64.74;94617.53;4924221;29;20322;-89
2022/02/01 08:32:00;;;;;;;21.27;9.77;;;3.80;78.70;;;3.03;64.82;94629.56;4939648;29;20215;-89
2022/02/01 08:34:29;;;;;;;17.50;8.95;;;3.80;78.70;;;3.03;64.72;94621.78;4940280;29;20219;-89
2022/02/01 08:36:56;;;;;;;17.35;9.60;;;3.80;78.50;;;3.02;64.59;94627.13;4941352;29;20673;-88
2022/02/01 08:39:24;;;;;;;14.93;8.48;;;3.90;78.60;;;3.14;64.58;94635.47;4924576;29;20228;-85
2022/02/01 08:41:51;;;;;;;15.18;8.35;;;3.90;78.60;;;3.15;64.62;94637.06;4940428;29;20195;-84
2022/02/01 08:44:25;;;;;;;16.95;8.68;;;3.90;78.50;;;3.19;64.71;94634.03;4940587;28;20250;-88
2022/02/01 08:46:53;;;;;;;14.70;8.77;;;4.00;78.60;;;3.20;64.69;94642.63;4930412;29;20282;-89
2022/02/01 08:49:21;;;;;;;15.60;9.30;;;4.10;78.60;;;3.22;64.53;94634.69;4939734;29;20310;-89
2022/02/01 08:52:02;;;;;;;14.55;8.50;;;4.10;78.60;;;3.27;64.56;94653.19;4955111;28;20578;-88
2022/02/01 08:54:33;;;;;;;17.17;9.23;;;4.10;78.70;;;3.30;64.80;94639.94;4940877;28;20322;-89
2022/02/01 08:59:52;;;;;;;12.05;7.93;;;4.10;78.60;;;3.37;64.43;94627.97;4962020;28;20249;-88
2022/02/01 09:02:26;;;;;;;17.85;9.10;;;4.20;78.60;;;3.42;64.51;94643.03;4953188;28;20205;-89
2022/02/01 09:04:55;;;;;;;17.77;9.07;;;4.20;78.50;;;3.32;64.51;94625.84;4956795;28;20254;-89
2022/02/01 09:07:23;;;;;;;13.02;8.85;;;4.20;78.40;;;3.34;64.64;94625.69;4940288;29;20230;-88
2022/02/01 09:09:52;;;;;;;15.48;8.85;;;4.20;78.30;;;3.31;64.68;94623.41;4939422;29;20226;-89
2022/02/01 09:12:20;;;;;;;13.30;8.52;;;4.20;78.30;;;3.31;64.55;94629.41;4938882;29;20199;-88
2022/02/01 09:14:48;;;;;;;13.80;8.75;;;4.30;78.30;;;3.30;64.43;94624.38;4939493;29;20238;-88
2022/02/01 09:17:17;;;;;;;11.07;8.10;;;4.20;78.20;;;3.23;64.34;94611.19;4939389;29;20467;-88
2022/02/01 09:19:45;;;;;;;13.10;8.63;;;4.20;78.20;;;3.27;64.40;94619.47;4938823;29;20219;-88
2022/02/01 09:22:14;;;;;;;13.35;8.10;;;4.20;78.20;;;3.27;64.47;94628.09;4939408;29;20208;-88
2022/02/01 09:24:43;;;;;;;11.98;8.52;;;4.20;78.20;;;3.27;64.19;94632.44;4939129;29;20223;-88
2022/02/01 09:27:13;;;;;;;15.93;9.55;;;4.20;78.10;;;3.23;64.10;94644.09;4939190;29;20203;-89
2022/02/01 09:29:41;;;;;;;15.77;8.98;;;4.20;78.00;;;3.23;64.35;94647.50;4939218;29;20242;-89
2022/02/01 09:32:09;;;;;;;14.57;9.05;;;4.20;78.10;;;3.24;64.45;94645.72;4923795;29;20200;-89
2022/02/01 09:35:00;;;;;;;13.35;8.18;;;4.20;78.20;;;3.31;64.49;94665.69;4941748;29;20233;-91
2022/02/01 09:37:28;;;;;;;12.98;8.65;;;4.10;78.20;;;3.31;64.67;94660.50;4938368;29;20257;-88
2022/02/01 09:39:56;;;;;;;13.25;9.15;;;4.20;78.20;;;3.39;64.17;94658.94;4937893;29;20223;-88
2022/02/01 09:42:27;;;;;;;10.90;7.80;;;4.30;78.40;;;3.44;64.32;94657.50;4938530;29;20262;-89
2022/02/01 09:44:58;;;;;;;14.45;8.65;;;4.30;78.40;;;3.47;63.93;94654.59;4927587;29;20728;-87
2022/02/01 09:47:38;;;;;;;13.13;8.55;;;4.30;78.30;;;3.47;63.81;94652.00;4938683;29;20226;-88
2022/02/01 09:50:07;;;;;;;14.98;8.07;;;4.40;78.20;;;3.55;64.29;94653.00;4922095;29;20274;-88
2022/02/01 09:52:35;;;;;;;11.85;7.70;;;4.40;78.20;;;3.64;64.02;94659.88;4934749;29;20211;-88
2022/02/01 09:55:06;;;;;;;12.25;8.20;;;4.40;78.20;;;3.61;63.97;94649.78;4945871;29;20220;-88
2022/02/01 09:57:35;;;;;;;11.57;8.13;;;4.40;78.10;;;3.64;63.88;94647.69;4949038;29;20232;-88
2022/02/01 10:00:13;;;;;;;13.00;7.68;;;4.40;78.10;;;3.75;63.79;94653.56;4950899;29;20674;-89
2022/02/01 10:03:04;;;;;;;11.20;7.65;;;4.50;78.10;;;3.74;63.66;94641.59;4948070;28;20198;-89
2022/02/01 10:05:35;;;;;;;15.68;8.20;;;4.60;78.20;;;3.82;63.48;94650.22;4942487;28;20231;-89
2022/02/01 10:08:04;;;;;;;11.35;7.65;;;4.60;78.10;;;3.93;63.51;94643.94;4954899;29;20203;-89
2022/02/01 10:10:33;;;;;;;10.80;7.40;;;4.70;78.20;;;4.00;63.89;94646.69;4941445;28;20752;-88
2022/02/01 10:13:17;;;;;;;9.73;6.80;;;4.70;78.30;;;4.08;63.52;94641.53;4953372;28;20203;-88
2022/02/01 10:15:59;;;;;;;10.30;7.50;;;4.70;78.10;;;4.09;63.51;94637.16;4946889;28;20313;-88
2022/02/01 10:18:30;;;;;;;8.55;6.78;;;4.70;78.00;;;4.04;63.14;94622.06;4938183;29;20235;-88
2022/02/01 10:21:15;;;;;;;8.20;6.88;;;4.80;77.90;;;4.01;63.29;94617.19;4954097;29;20230;-88
2022/02/01 10:23:45;;;;;;;8.65;6.25;;;4.90;78.70;;;3.93;63.23;94617.16;4936947;29;20859;-89
2022/02/01 10:26:22;;;;;;;10.55;5.97;;;4.90;77.80;;;4.00;63.36;94620.75;4953790;29;20203;-88
2022/02/01 10:31:59;;;;;;;9.25;6.32;;;4.90;77.80;;;3.88;63.67;94625.41;4938968;28;20203;-86
2022/02/01 10:37:24;;;;;;;10.60;6.82;;;4.80;77.80;;;3.81;63.81;94614.06;4920596;29;20200;-91
2022/02/01 10:40:05;;;;;;;11.75;7.50;;;4.70;77.90;;;3.84;64.35;94603.34;4930509;29;20219;-88
2022/02/01 10:42:33;;;;;;;10.02;6.38;;;4.70;78.00;;;3.78;64.36;94603.97;4934993;29;20215;-90
2022/02/01 10:45:01;;;;;;;9.93;7.00;;;4.70;78.10;;;3.77;63.82;94592.81;4934498;29;20243;-91
2022/02/01 10:47:36;;;;;;;10.90;6.57;;;4.70;78.20;;;3.92;64.65;94612.94;4934559;29;20242;-90
2022/02/01 10:50:17;;;;;;;11.23;7.30;;;4.70;78.20;;;3.87;64.39;94591.84;4971846;28;20221;-88
2022/02/01 10:52:48;;;;;;;11.63;7.47;;;4.70;78.30;;;3.85;64.69;94590.22;4942938;29;20642;-91
2022/02/01 10:55:19;;;;;;;11.52;8.07;;;4.70;78.30;;;3.82;64.71;94595.72;4946175;28;20227;-89
2022/02/01 10:57:47;;;;;;;10.68;6.72;;;4.70;78.40;;;3.75;64.77;94567.97;4941382;28;20478;-87
2022/02/01 11:00:18;;;;;;;13.63;8.27;;;4.70;78.20;;;3.77;64.11;94577.25;4941129;28;20310;-88
2022/02/01 11:02:47;;;;;;;12.93;7.40;;;4.70;78.20;;;3.73;64.83;94586.28;4956646;28;20224;-88
2022/02/01 11:05:18;;;;;;;11.15;7.80;;;4.70;78.30;;;3.71;65.15;94572.69;4934443;28;20266;-88
2022/02/01 11:08:04;;;;;;;9.40;5.68;;;4.70;79.30;;;3.68;64.77;94540.06;4921264;29;20204;-89
2022/02/01 11:10:33;;;;;;;7.30;5.38;;;4.60;78.50;;;3.84;64.77;94561.84;4942198;29;20764;-88
2022/02/01 11:13:08;;;;;;;7.47;5.50;;;4.70;78.70;;;3.77;64.77;94532.31;4953079;29;20207;-87
2022/02/01 11:15:36;;;;;;;7.07;6.13;;;4.70;78.70;;;3.92;64.98;94548.06;4939155;28;20708;-89
2022/02/01 11:18:24;;;;;;;8.90;6.00;;;4.70;78.80;;;3.95;64.72;94574.50;4941384;29;20222;-89
2022/02/01 11:21:15;;;;;;;8.00;5.88;;;4.70;78.70;;;3.66;64.60;94536.03;4966651;28;20627;-90
2022/02/01 11:23:53;;;;;;;7.78;5.38;;;4.80;78.50;;;3.75;64.91;94547.22;4938529;29;20612;-91
2022/02/01 11:26:50;;;;;;;8.07;5.65;;;4.70;78.50;;;3.69;65.47;94530.53;4940935;29;20195;-90
2022/02/01 11:31:59;;;;;;;8.32;5.43;;;4.70;78.70;;;3.66;65.13;94523.06;4941202;29;20246;-91
2022/02/01 11:34:39;;;;;;;7.43;5.05;;;4.70;78.80;;;3.75;65.36;94539.44;4955780;29;20223;-90
2022/02/01 11:37:10;;;;;;;7.15;5.38;;;4.70;78.60;;;3.72;64.78;94522.41;4957470;29;20203;-92
2022/02/01 11:39:53;;;;;;;6.70;5.05;;;4.70;78.70;;;3.74;65.17;94523.06;4958264;28;20258;-91
2022/02/01 11:42:29;;;;;;;6.53;5.38;;;4.70;78.60;;;3.76;65.37;94521.16;4932925;28;20203;-88
2022/02/01 11:45:06;;;;;;;6.60;4.85;;;4.70;78.80;;;3.82;65.23;94523.09;4962080;28;20314;-88
2022/02/01 11:47:36;;;;;;;6.03;4.88;;;4.70;78.90;;;3.78;65.43;94516.59;4956607;29;20214;-90
2022/02/01 11:50:14;;;;;;;7.53;5.07;;;4.70;78.90;;;3.80;65.45;94511.25;4948796;28;20290;-87
2022/02/01 11:52:57;;;;;;;6.43;5.25;;;4.80;79.00;;;3.82;65.69;94497.16;4954081;28;20204;-90
2022/02/01 11:55:31;;;;;;;6.82;4.68;;;4.80;79.10;;;3.97;65.65;94515.50;4940364;28;20215;-90
2022/02/01 11:58:05;;;;;;;6.95;5.07;;;4.80;79.20;;;3.73;66.09;94472.16;4951557;28;20592;-90
2022/02/01 12:00:41;;;;;;;7.18;4.72;;;4.70;79.30;;;3.92;65.90;94504.78;4943897;29;20220;-88
2022/02/01 12:03:10;;;;;;;7.00;4.70;;;4.80;79.10;;;3.77;66.13;94490.81;4941807;29;20207;-90
2022/02/01 12:05:42;;;;;;;5.68;4.55;;;4.80;79.20;;;3.62;66.15;94462.09;4951691;29;20283;-90
2022/02/01 12:08:17;;;;;;;7.60;5.05;;;4.80;79.10;;;3.76;65.95;94510.75;4970142;28;20234;-89
2022/02/01 12:10:52;;;;;;;5.90;4.03;;;4.70;79.00;;;3.52;66.08;94477.81;4940459;28;20226;-90
2022/02/01 12:13:22;;;;;;;6.30;4.47;;;4.70;79.00;;;3.69;66.51;94523.53;4952782;29;20726;-90
2022/02/01 12:15:55;;;;;;;5.65;4.60;;;4.70;79.10;;;3.61;66.24;94515.75;4949733;29;20267;-93